Latest METARs, TAFs and NOTAMs for SEGU


---------------------------------------------------------------------------
	(OBSERVATIONS)
SEGU 241000Z 07003KT 9999 VCSH SCT006 BKN020 OVC090 25/23 Q1011
    NOSIG RMK A2986=
SEGU 240900Z 17003KT 9999 -RA SCT006 BKN020 OVC090 24/23 Q1011
    RERA NOSIG RMK A2985=
SEGU 240835Z 16003KT 8000 -RA SCT005 BKN020 OVC090 24/23 Q1011
    NOSIG RMK A2986=
SEGU 240800Z 14005KT 6000 RA SCT005 BKN020 OVC090 24/23 Q1011
    RETS NOSIG RMK A2987=
---------------------------------------------------------------------------
	(TERMINAL AREA FORECAST)
SEGU 240930Z 2412/2512 06005KT 9999 FEW010 BKN020 BKN090
    TEMPO 2412/2413 8000 RA
    FM241800 12005KT 9999 SCT026 SCT100
    TEMPO 2422/2424 8000 SHRA BKN020TCU
    FM250100 24007KT 9999 FEW010 SCT020 BKN090
    TEMPO 2502/2505 6000 TSRA FEW016CB BKN020
    FM250600 30005KT 9999 FEW010 BKN020 OVC080 TX32/2420Z
    TN25/2510Z=
---------------------------------------------------------------------------
	(NOTAMS)


SEGU A0055/09 APN NORTE CLSD POR INCIDENTE DE ACFT 27 JAN 05:30
    UNTIL 27 JAN 18:00 ESTIMATED

SEGU A0130/17 ASCENT OF FREE BALLOON WILL TAKE PLACE FM STN INOCAR
    COORD 021618.26S 0795414.34W VSP 10 A 13FT/SEC HGT 83000FT.
    CTN. SFC - UNL, MON-FRI 1015-1215, 16 FEB 10:15 2017 UNTIL
    14 APR 12:15 2017. CREATED: 15 FEB 22:39 2017

SEGU A0137/17 RWY 03/21 CLSD DUE TO MAINT. AUTH OPS HEL. 25 MAR
    13:00 2017 UNTIL 25 MAR 19:00 2017. CREATED: 20 FEB 19:20
    2017

SEGU A0138/17 MOV AREA WIP SUBJ TFC. CTN. 20 FEB 19:25 2017 UNTIL
    18 MAY 04:59 2017. CREATED: 20 FEB 19:26 2017

SEGU A0139/17 WIP IN GREEN AREAS MOV AREA, SUBJ TFC. CTN. 20
    FEB 19:30 2017 UNTIL 18 MAY 04:59 2017. CREATED: 20 FEB 19:30
    2017

SEGU A0165/17 TEMPO OBST HGT 15M COORD 021033S 0795331W LOCATED
    900M THR RWY 03. CTN. 01 MAR 20:26 2017 UNTIL 30 MAR 04:59
    2017. CREATED: 01 MAR 20:27 2017

SEGU A0221/17 ACC SECT 2 FREQ 127.95 MHZ LTD TO 100 NM. 23 MAR
    19:14 2017 UNTIL 25 MAR 18:00 2017 ESTIMATED. CREATED: 23
    MAR 19:16 2017

SEGU A1463/06 COMBUSTIBLE JET A-1 RESTRINGIDO 20 POR CIENTO 26
    DEC 20:45 2006 UNTIL 04 JAN 23:00 ESTIMATED

SEGU V0055/17 [US DOD PROCEDURAL NOTAM] STANDARD INSTRUMENT DEPARTURE
    (SID) NOT AUTHORIZED CSA FLIP VOL-2 SID 5F DEPARTURE RWY
    03. 06 JAN 14:20 2017 UNTIL 05 APR 23:59 2017. CREATED: 06
    JAN 14:20 2017

SEGU V0056/17 [US DOD PROCEDURAL NOTAM] STANDARD INSTRUMENT DEPARTURE
    (SID) NOT AUTHORIZED CSA FLIP VOL-2 SID 1D/2D DEPARTURE RWY
    21. 06 JAN 14:22 2017 UNTIL 05 APR 23:59 2017. CREATED: 06
    JAN 14:22 2017

SEGU V0057/17 [US DOD PROCEDURAL NOTAM] INSTRUMENT APPROACH PROCEDURE
    NOT AUTHORIZED CSA FLIP VOL-2 DESCENT 2 VOR/DME GYV RWY 21.
    06 JAN 14:24 2017 UNTIL 05 APR 23:59 2017. CREATED: 06 JAN
    14:24 2017

SEGU V0058/17 AERODROME [US DOD PROCEDURAL NOTAM] INSTRUMENT
    APPROACH PROCEDURE VOR DESCENT 2/VOR GYV RWY 21. REQUEST
    ASSISTANCE FOR FLYABILITY CHECK IN ORDER TO AUTHORIZE PROCEDURE.
    FOR FLYABILITY FORMS CONTACT AMC AOS OL-J EMAIL: CSATRPS@US.AF.MIL
    DSN: 968-4010 POC: TSGT ANDRES A PUNTO. 06 JAN 14:25 2017
    UNTIL 05 APR 23:59 2017. CREATED: 06 JAN 14:25 2017

---------------------------------------------------------------------------